sensor_id;sensor_type;location;lat;lon;timestamp;pressure;altitude;pressure_sealevel;temperature;humidity
5954;BME280;3002;42.642;24.812;2022-10-12T00:00:18;97070.00;;;18.33;100.00
5954;BME280;3002;42.642;24.812;2022-10-12T00:02:44;97081.66;;;18.42;100.00
5954;BME280;3002;42.642;24.812;2022-10-12T00:05:09;97078.63;;;18.44;100.00
5954;BME280;3002;42.642;24.812;2022-10-12T00:07:35;97075.63;;;18.37;100.00
5954;BME280;3002;42.642;24.812;2022-10-12T00:10:01;97079.59;;;18.39;100.00
5954;BME280;3002;42.642;24.812;2022-10-12T00:12:29;97072.75;;;18.25;100.00
5954;BME280;3002;42.642;24.812;2022-10-12T00:14:55;97074.66;;;18.15;100.00
5954;BME280;3002;42.642;24.812;2022-10-12T00:17:20;97077.38;;;18.24;100.00
5954;BME280;3002;42.642;24.812;2022-10-12T00:19:45;97079.28;;;18.32;100.00
5954;BME280;3002;42.642;24.812;2022-10-12T00:22:11;97073.72;;;18.20;100.00
5954;BME280;3002;42.642;24.812;2022-10-12T00:24:36;97081.00;;;18.54;100.00
5954;BME280;3002;42.642;24.812;2022-10-12T00:27:02;97078.75;;;18.56;100.00
5954;BME280;3002;42.642;24.812;2022-10-12T00:29:27;97083.41;;;18.56;100.00
5954;BME280;3002;42.642;24.812;2022-10-12T00:31:53;97075.41;;;18.59;100.00
5954;BME280;3002;42.642;24.812;2022-10-12T00:34:18;97081.78;;;18.63;100.00
5954;BME280;3002;42.642;24.812;2022-10-12T00:36:44;97066.47;;;18.67;100.00
5954;BME280;3002;42.642;24.812;2022-10-12T00:39:09;97078.25;;;18.63;100.00
5954;BME280;3002;42.642;24.812;2022-10-12T00:41:40;97072.34;;;18.69;100.00
5954;BME280;3002;42.642;24.812;2022-10-12T00:44:44;97071.41;;;18.65;100.00
5954;BME280;3002;42.642;24.812;2022-10-12T00:47:32;97069.06;;;18.38;100.00
5954;BME280;3002;42.642;24.812;2022-10-12T00:50:13;97070.06;;;18.07;100.00
5954;BME280;3002;42.642;24.812;2022-10-12T00:53:10;97080.56;;;17.65;100.00
5954;BME280;3002;42.642;24.812;2022-10-12T00:55:47;97076.03;;;17.44;100.00
5954;BME280;3002;42.642;24.812;2022-10-12T00:58:15;97082.44;;;17.56;100.00
5954;BME280;3002;42.642;24.812;2022-10-12T01:00:41;97083.09;;;17.62;100.00
5954;BME280;3002;42.642;24.812;2022-10-12T01:03:09;97088.72;;;17.74;100.00
5954;BME280;3002;42.642;24.812;2022-10-12T01:05:38;97079.16;;;17.94;100.00
5954;BME280;3002;42.642;24.812;2022-10-12T01:08:05;97094.16;;;17.91;100.00
5954;BME280;3002;42.642;24.812;2022-10-12T01:10:31;97079.09;;;17.59;100.00
5954;BME280;3002;42.642;24.812;2022-10-12T01:12:57;97084.03;;;17.49;100.00
5954;BME280;3002;42.642;24.812;2022-10-12T01:15:26;97089.47;;;17.66;100.00
5954;BME280;3002;42.642;24.812;2022-10-12T01:20:31;97077.47;;;17.41;100.00
5954;BME280;3002;42.642;24.812;2022-10-12T01:23:35;97088.75;;;17.83;100.00
5954;BME280;3002;42.642;24.812;2022-10-12T01:31:40;97091.53;;;17.52;100.00
5954;BME280;3002;42.642;24.812;2022-10-12T01:34:19;97090.94;;;17.15;100.00
5954;BME280;3002;42.642;24.812;2022-10-12T01:37:00;97100.38;;;17.26;100.00
5954;BME280;3002;42.642;24.812;2022-10-12T01:39:40;97091.50;;;17.34;100.00
5954;BME280;3002;42.642;24.812;2022-10-12T01:42:13;97093.41;;;16.85;100.00
5954;BME280;3002;42.642;24.812;2022-10-12T01:44:40;97097.81;;;17.12;100.00
5954;BME280;3002;42.642;24.812;2022-10-12T01:47:05;97101.50;;;17.25;100.00
5954;BME280;3002;42.642;24.812;2022-10-12T01:49:32;97100.31;;;17.57;100.00
5954;BME280;3002;42.642;24.812;2022-10-12T02:05:59;97105.53;;;17.45;96.20
5954;BME280;3002;42.642;24.812;2022-10-12T02:08:44;97104.47;;;17.06;98.33
5954;BME280;3002;42.642;24.812;2022-10-12T02:11:13;97108.09;;;17.50;95.61
5954;BME280;3002;42.642;24.812;2022-10-12T02:16:17;97107.16;;;17.46;94.99
5954;BME280;3002;42.642;24.812;2022-10-12T02:18:46;97108.88;;;17.33;96.76
5954;BME280;3002;42.642;24.812;2022-10-12T02:21:18;97109.31;;;17.18;97.05
5954;BME280;3002;42.642;24.812;2022-10-12T02:23:46;97110.81;;;17.50;95.24
5954;BME280;3002;42.642;24.812;2022-10-12T02:26:14;97119.13;;;17.62;94.97
5954;BME280;3002;42.642;24.812;2022-10-12T02:28:43;97112.00;;;16.78;100.00
5954;BME280;3002;42.642;24.812;2022-10-12T02:31:30;97115.72;;;17.31;98.40
5954;BME280;3002;42.642;24.812;2022-10-12T02:34:03;97111.72;;;17.77;95.47
5954;BME280;3002;42.642;24.812;2022-10-12T02:39:18;97110.06;;;17.58;93.99
5954;BME280;3002;42.642;24.812;2022-10-12T02:41:49;97111.41;;;17.96;92.49
5954;BME280;3002;42.642;24.812;2022-10-12T02:44:19;97101.03;;;17.32;95.86
5954;BME280;3002;42.642;24.812;2022-10-12T02:46:47;97109.84;;;17.37;96.99
5954;BME280;3002;42.642;24.812;2022-10-12T02:49:15;97110.53;;;17.52;97.31
5954;BME280;3002;42.642;24.812;2022-10-12T02:51:42;97107.34;;;17.58;98.00
5954;BME280;3002;42.642;24.812;2022-10-12T02:54:08;97118.91;;;17.90;95.95
5954;BME280;3002;42.642;24.812;2022-10-12T02:56:41;97121.91;;;17.80;97.06
5954;BME280;3002;42.642;24.812;2022-10-12T02:59:07;97113.38;;;16.98;100.00
5954;BME280;3002;42.642;24.812;2022-10-12T03:01:32;97121.00;;;17.45;100.00
5954;BME280;3002;42.642;24.812;2022-10-12T03:03:58;97126.34;;;17.58;100.00
5954;BME280;3002;42.642;24.812;2022-10-12T03:06:23;97124.19;;;17.38;100.00
5954;BME280;3002;42.642;24.812;2022-10-12T03:08:49;97130.53;;;17.25;100.00
5954;BME280;3002;42.642;24.812;2022-10-12T03:11:14;97130.25;;;17.44;100.00
5954;BME280;3002;42.642;24.812;2022-10-12T03:13:40;97126.44;;;17.36;100.00
5954;BME280;3002;42.642;24.812;2022-10-12T03:16:09;97120.41;;;17.08;100.00
5954;BME280;3002;42.642;24.812;2022-10-12T03:18:35;97117.16;;;17.28;100.00
5954;BME280;3002;42.642;24.812;2022-10-12T03:21:01;97104.53;;;17.24;100.00
5954;BME280;3002;42.642;24.812;2022-10-12T03:23:27;97112.41;;;17.34;100.00
5954;BME280;3002;42.642;24.812;2022-10-12T03:25:52;97121.34;;;17.43;100.00
5954;BME280;3002;42.642;24.812;2022-10-12T03:28:18;97115.44;;;17.41;100.00
5954;BME280;3002;42.642;24.812;2022-10-12T03:30:44;97119.28;;;17.49;100.00
5954;BME280;3002;42.642;24.812;2022-10-12T03:33:09;97117.59;;;17.79;100.00
5954;BME280;3002;42.642;24.812;2022-10-12T03:35:35;97122.09;;;17.92;100.00
5954;BME280;3002;42.642;24.812;2022-10-12T03:38:00;97116.97;;;17.90;100.00
5954;BME280;3002;42.642;24.812;2022-10-12T03:40:26;97122.34;;;17.64;100.00
5954;BME280;3002;42.642;24.812;2022-10-12T03:42:51;97130.16;;;17.57;100.00
5954;BME280;3002;42.642;24.812;2022-10-12T03:45:17;97117.03;;;17.42;100.00
5954;BME280;3002;42.642;24.812;2022-10-12T03:47:42;97122.47;;;17.51;100.00
5954;BME280;3002;42.642;24.812;2022-10-12T03:50:08;97113.53;;;17.50;100.00
5954;BME280;3002;42.642;24.812;2022-10-12T03:52:33;97121.72;;;17.10;100.00
5954;BME280;3002;42.642;24.812;2022-10-12T03:54:59;97123.56;;;17.01;100.00
5954;BME280;3002;42.642;24.812;2022-10-12T03:57:24;97122.31;;;17.47;100.00
5954;BME280;3002;42.642;24.812;2022-10-12T03:59:50;97127.03;;;17.81;100.00
5954;BME280;3002;42.642;24.812;2022-10-12T04:02:15;97129.59;;;17.78;100.00
5954;BME280;3002;42.642;24.812;2022-10-12T04:04:41;97119.13;;;17.62;100.00
5954;BME280;3002;42.642;24.812;2022-10-12T04:07:06;97122.97;;;17.53;100.00
5954;BME280;3002;42.642;24.812;2022-10-12T04:09:32;97120.28;;;17.70;100.00
5954;BME280;3002;42.642;24.812;2022-10-12T04:11:57;97121.75;;;17.85;100.00
5954;BME280;3002;42.642;24.812;2022-10-12T04:14:23;97117.81;;;18.00;100.00
5954;BME280;3002;42.642;24.812;2022-10-12T04:16:48;97120.34;;;17.96;98.77
5954;BME280;3002;42.642;24.812;2022-10-12T04:19:14;97121.47;;;17.95;97.21
5954;BME280;3002;42.642;24.812;2022-10-12T04:21:39;97114.13;;;17.96;100.00
5954;BME280;3002;42.642;24.812;2022-10-12T04:24:05;97115.53;;;17.93;100.00
5954;BME280;3002;42.642;24.812;2022-10-12T04:26:31;97111.53;;;17.73;100.00
5954;BME280;3002;42.642;24.812;2022-10-12T04:28:57;97115.88;;;17.83;100.00
5954;BME280;3002;42.642;24.812;2022-10-12T04:31:22;97126.22;;;17.81;100.00
5954;BME280;3002;42.642;24.812;2022-10-12T04:33:47;97117.94;;;17.86;99.78
5954;BME280;3002;42.642;24.812;2022-10-12T04:36:13;97103.41;;;17.82;100.00
5954;BME280;3002;42.642;24.812;2022-10-12T04:38:38;97117.16;;;18.03;97.63
5954;BME280;3002;42.642;24.812;2022-10-12T04:41:04;97130.56;;;18.16;95.30
5954;BME280;3002;42.642;24.812;2022-10-12T04:43:30;97123.03;;;18.05;96.82
5954;BME280;3002;42.642;24.812;2022-10-12T04:45:56;97124.97;;;18.04;99.39
5954;BME280;3002;42.642;24.812;2022-10-12T04:48:23;97133.25;;;17.82;100.00
5954;BME280;3002;42.642;24.812;2022-10-12T04:50:49;97128.31;;;17.84;100.00
5954;BME280;3002;42.642;24.812;2022-10-12T04:53:14;97131.81;;;17.84;100.00
5954;BME280;3002;42.642;24.812;2022-10-12T04:55:40;97130.06;;;17.88;100.00
5954;BME280;3002;42.642;24.812;2022-10-12T04:58:05;97136.31;;;17.89;100.00
5954;BME280;3002;42.642;24.812;2022-10-12T05:00:31;97138.84;;;17.85;100.00
5954;BME280;3002;42.642;24.812;2022-10-12T05:02:56;97140.13;;;17.88;100.00
5954;BME280;3002;42.642;24.812;2022-10-12T05:05:22;97139.00;;;17.98;100.00
5954;BME280;3002;42.642;24.812;2022-10-12T05:07:47;97138.41;;;18.18;100.00
5954;BME280;3002;42.642;24.812;2022-10-12T05:10:13;97142.38;;;18.12;100.00
5954;BME280;3002;42.642;24.812;2022-10-12T05:12:38;97139.03;;;18.32;99.38
5954;BME280;3002;42.642;24.812;2022-10-12T05:15:04;97152.13;;;18.22;100.00
5954;BME280;3002;42.642;24.812;2022-10-12T05:17:30;97144.94;;;18.26;100.00
5954;BME280;3002;42.642;24.812;2022-10-12T05:19:55;97154.34;;;18.37;96.73
5954;BME280;3002;42.642;24.812;2022-10-12T05:22:21;97148.91;;;18.02;100.00
5954;BME280;3002;42.642;24.812;2022-10-12T05:24:46;97144.59;;;18.27;98.60
5954;BME280;3002;42.642;24.812;2022-10-12T05:27:12;97148.25;;;17.79;98.29
5954;BME280;3002;42.642;24.812;2022-10-12T05:29:37;97152.25;;;17.90;97.08
5954;BME280;3002;42.642;24.812;2022-10-12T05:32:03;97154.66;;;18.09;96.82
5954;BME280;3002;42.642;24.812;2022-10-12T05:34:28;97151.31;;;18.21;96.79
5954;BME280;3002;42.642;24.812;2022-10-12T05:36:54;97159.47;;;18.30;94.02
5954;BME280;3002;42.642;24.812;2022-10-12T05:39:19;97151.00;;;18.23;93.93
5954;BME280;3002;42.642;24.812;2022-10-12T05:41:45;97164.72;;;18.35;93.53
5954;BME280;3002;42.642;24.812;2022-10-12T05:44:10;97164.91;;;18.38;91.90
5954;BME280;3002;42.642;24.812;2022-10-12T05:46:36;97165.22;;;18.54;90.03
5954;BME280;3002;42.642;24.812;2022-10-12T05:49:01;97156.75;;;18.30;92.50
5954;BME280;3002;42.642;24.812;2022-10-12T05:51:27;97170.16;;;18.43;91.65
5954;BME280;3002;42.642;24.812;2022-10-12T05:53:52;97172.56;;;18.36;93.54
5954;BME280;3002;42.642;24.812;2022-10-12T05:56:18;97169.69;;;18.41;90.91
5954;BME280;3002;42.642;24.812;2022-10-12T05:58:43;97167.59;;;18.38;89.61
5954;BME280;3002;42.642;24.812;2022-10-12T06:01:10;97176.72;;;18.34;91.81
5954;BME280;3002;42.642;24.812;2022-10-12T06:03:37;97164.09;;;18.12;95.13
5954;BME280;3002;42.642;24.812;2022-10-12T06:06:03;97176.69;;;18.16;95.04
5954;BME280;3002;42.642;24.812;2022-10-12T06:08:29;97179.56;;;18.29;93.55
5954;BME280;3002;42.642;24.812;2022-10-12T06:10:55;97183.28;;;18.41;94.13
5954;BME280;3002;42.642;24.812;2022-10-12T06:13:21;97191.56;;;18.28;98.10
5954;BME280;3002;42.642;24.812;2022-10-12T06:15:47;97195.06;;;18.45;91.74
5954;BME280;3002;42.642;24.812;2022-10-12T06:18:14;97196.84;;;18.41;93.41
5954;BME280;3002;42.642;24.812;2022-10-12T06:20:52;97201.47;;;18.24;95.29
5954;BME280;3002;42.642;24.812;2022-10-12T06:23:18;97194.59;;;18.35;94.78
5954;BME280;3002;42.642;24.812;2022-10-12T06:25:46;97210.56;;;18.45;92.71
5954;BME280;3002;42.642;24.812;2022-10-12T06:28:13;97214.41;;;18.53;92.52
5954;BME280;3002;42.642;24.812;2022-10-12T06:30:39;97216.97;;;18.40;93.54
5954;BME280;3002;42.642;24.812;2022-10-12T06:33:04;97215.03;;;18.58;93.48
5954;BME280;3002;42.642;24.812;2022-10-12T06:35:30;97212.16;;;18.11;93.74
5954;BME280;3002;42.642;24.812;2022-10-12T06:37:55;97222.38;;;18.40;92.40
5954;BME280;3002;42.642;24.812;2022-10-12T06:40:21;97221.78;;;18.69;90.32
5954;BME280;3002;42.642;24.812;2022-10-12T06:42:49;97231.03;;;18.60;91.43
5954;BME280;3002;42.642;24.812;2022-10-12T06:45:15;97228.63;;;18.50;93.98
5954;BME280;3002;42.642;24.812;2022-10-12T06:47:41;97232.28;;;18.19;96.54
5954;BME280;3002;42.642;24.812;2022-10-12T06:50:07;97228.22;;;17.90;100.00
5954;BME280;3002;42.642;24.812;2022-10-12T06:52:34;97225.16;;;17.75;100.00
5954;BME280;3002;42.642;24.812;2022-10-12T06:54:59;97231.81;;;18.26;99.26
5954;BME280;3002;42.642;24.812;2022-10-12T06:57:25;97243.47;;;18.52;95.77
5954;BME280;3002;42.642;24.812;2022-10-12T06:59:50;97233.94;;;18.81;93.19
5954;BME280;3002;42.642;24.812;2022-10-12T07:02:16;97238.09;;;18.78;92.55
5954;BME280;3002;42.642;24.812;2022-10-12T07:04:41;97239.50;;;18.93;90.66
5954;BME280;3002;42.642;24.812;2022-10-12T07:07:07;97244.56;;;18.16;98.47
5954;BME280;3002;42.642;24.812;2022-10-12T07:09:33;97242.03;;;18.46;97.27
5954;BME280;3002;42.642;24.812;2022-10-12T07:11:59;97244.03;;;18.71;93.97
5954;BME280;3002;42.642;24.812;2022-10-12T07:14:24;97237.53;;;18.15;97.93
5954;BME280;3002;42.642;24.812;2022-10-12T07:16:49;97237.75;;;18.54;93.95
5954;BME280;3002;42.642;24.812;2022-10-12T07:19:16;97235.81;;;18.89;90.43
5954;BME280;3002;42.642;24.812;2022-10-12T07:21:41;97230.84;;;19.08;89.53
5954;BME280;3002;42.642;24.812;2022-10-12T07:24:10;97236.63;;;18.98;90.21
5954;BME280;3002;42.642;24.812;2022-10-12T07:26:36;97226.22;;;19.09;91.53
5954;BME280;3002;42.642;24.812;2022-10-12T07:29:01;97232.25;;;19.32;86.51
5954;BME280;3002;42.642;24.812;2022-10-12T07:31:27;97232.34;;;19.44;87.91
5954;BME280;3002;42.642;24.812;2022-10-12T07:33:53;97236.22;;;19.34;88.42
5954;BME280;3002;42.642;24.812;2022-10-12T07:36:18;97236.72;;;19.28;87.28
5954;BME280;3002;42.642;24.812;2022-10-12T07:38:44;97238.53;;;18.37;94.68
5954;BME280;3002;42.642;24.812;2022-10-12T07:41:10;97249.59;;;18.84;92.24
5954;BME280;3002;42.642;24.812;2022-10-12T07:43:36;97248.78;;;18.92;89.25
5954;BME280;3002;42.642;24.812;2022-10-12T07:46:03;97239.84;;;18.65;91.06
5954;BME280;3002;42.642;24.812;2022-10-12T07:48:29;97248.78;;;18.75;90.39
5954;BME280;3002;42.642;24.812;2022-10-12T07:50:54;97244.59;;;19.20;87.57
5954;BME280;3002;42.642;24.812;2022-10-12T07:53:20;97234.63;;;19.33;85.34
5954;BME280;3002;42.642;24.812;2022-10-12T07:55:45;97241.91;;;19.03;89.18
5954;BME280;3002;42.642;24.812;2022-10-12T07:58:11;97236.44;;;19.20;88.19
5954;BME280;3002;42.642;24.812;2022-10-12T08:00:37;97240.44;;;19.70;84.39
5954;BME280;3002;42.642;24.812;2022-10-12T08:03:03;97242.72;;;19.59;86.13
5954;BME280;3002;42.642;24.812;2022-10-12T08:05:28;97247.34;;;19.67;86.07
5954;BME280;3002;42.642;24.812;2022-10-12T08:07:54;97241.50;;;19.86;85.37
5954;BME280;3002;42.642;24.812;2022-10-12T08:10:20;97240.44;;;19.70;85.81
5954;BME280;3002;42.642;24.812;2022-10-12T08:12:46;97239.47;;;19.74;84.71
5954;BME280;3002;42.642;24.812;2022-10-12T08:15:12;97240.13;;;19.54;87.27
5954;BME280;3002;42.642;24.812;2022-10-12T08:17:38;97234.47;;;19.76;87.66
5954;BME280;3002;42.642;24.812;2022-10-12T08:20:05;97233.03;;;19.32;91.37
5954;BME280;3002;42.642;24.812;2022-10-12T08:22:31;97239.31;;;19.07;93.07
5954;BME280;3002;42.642;24.812;2022-10-12T08:24:56;97243.34;;;18.92;92.38
5954;BME280;3002;42.642;24.812;2022-10-12T08:27:21;97232.44;;;19.65;87.81
5954;BME280;3002;42.642;24.812;2022-10-12T08:29:47;97237.22;;;20.06;84.02
5954;BME280;3002;42.642;24.812;2022-10-12T08:32:12;97235.50;;;20.22;82.49
5954;BME280;3002;42.642;24.812;2022-10-12T08:34:38;97237.09;;;20.44;81.18
5954;BME280;3002;42.642;24.812;2022-10-12T08:37:04;97238.59;;;20.63;78.83
5954;BME280;3002;42.642;24.812;2022-10-12T08:39:29;97241.03;;;19.37;81.03
5954;BME280;3002;42.642;24.812;2022-10-12T08:42:15;97241.41;;;20.54;74.18
5954;BME280;3002;42.642;24.812;2022-10-12T08:47:36;97239.75;;;20.11;77.88
5954;BME280;3002;42.642;24.812;2022-10-12T08:50:04;97243.94;;;20.59;75.16
5954;BME280;3002;42.642;24.812;2022-10-12T08:52:44;97245.44;;;20.69;71.27
5954;BME280;3002;42.642;24.812;2022-10-12T08:55:39;97241.78;;;19.85;75.03
5954;BME280;3002;42.642;24.812;2022-10-12T08:58:16;97242.75;;;20.18;73.03
5954;BME280;3002;42.642;24.812;2022-10-12T09:00:46;97247.81;;;20.91;70.91
5954;BME280;3002;42.642;24.812;2022-10-12T09:05:58;97250.91;;;19.42;78.82
5954;BME280;3002;42.642;24.812;2022-10-12T09:11:31;97246.16;;;20.07;72.00
5954;BME280;3002;42.642;24.812;2022-10-12T09:14:09;97248.84;;;19.39;75.58
5954;BME280;3002;42.642;24.812;2022-10-12T09:16:44;97245.59;;;19.63;76.11
5954;BME280;3002;42.642;24.812;2022-10-12T09:21:46;97253.50;;;19.30;79.65
5954;BME280;3002;42.642;24.812;2022-10-12T09:24:25;97253.25;;;20.58;71.63
5954;BME280;3002;42.642;24.812;2022-10-12T09:26:58;97260.66;;;20.91;69.42
5954;BME280;3002;42.642;24.812;2022-10-12T09:29:29;97265.44;;;20.94;68.44
5954;BME280;3002;42.642;24.812;2022-10-12T09:32:20;97261.44;;;21.12;66.67
5954;BME280;3002;42.642;24.812;2022-10-12T09:34:49;97264.72;;;20.84;67.60
5954;BME280;3002;42.642;24.812;2022-10-12T09:37:20;97260.25;;;21.01;67.13
5954;BME280;3002;42.642;24.812;2022-10-12T09:39:47;97256.56;;;20.64;69.81
5954;BME280;3002;42.642;24.812;2022-10-12T09:42:13;97258.00;;;19.81;73.13
5954;BME280;3002;42.642;24.812;2022-10-12T09:47:24;97256.53;;;21.05;68.45
5954;BME280;3002;42.642;24.812;2022-10-12T09:49:55;97253.09;;;19.57;74.63
5954;BME280;3002;42.642;24.812;2022-10-12T09:52:29;97258.44;;;19.92;74.59
5954;BME280;3002;42.642;24.812;2022-10-12T09:55:22;97255.69;;;21.05;69.66
5954;BME280;3002;42.642;24.812;2022-10-12T09:57:56;97246.34;;;21.27;67.76
5954;BME280;3002;42.642;24.812;2022-10-12T10:00:32;97250.25;;;21.38;67.20
5954;BME280;3002;42.642;24.812;2022-10-12T10:02:58;97247.03;;;20.49;70.06
5954;BME280;3002;42.642;24.812;2022-10-12T10:05:26;97241.03;;;21.30;66.56
5954;BME280;3002;42.642;24.812;2022-10-12T10:07:52;97243.00;;;20.76;68.87
5954;BME280;3002;42.642;24.812;2022-10-12T10:10:21;97228.56;;;20.75;68.62
5954;BME280;3002;42.642;24.812;2022-10-12T10:12:55;97228.06;;;20.31;71.89
5954;BME280;3002;42.642;24.812;2022-10-12T10:15:30;97230.19;;;21.55;67.01
5954;BME280;3002;42.642;24.812;2022-10-12T10:20:50;97215.38;;;21.56;66.48
5954;BME280;3002;42.642;24.812;2022-10-12T10:23:55;97210.50;;;22.10;63.21
5954;BME280;3002;42.642;24.812;2022-10-12T10:26:22;97212.63;;;22.69;61.32
5954;BME280;3002;42.642;24.812;2022-10-12T10:28:53;97202.75;;;20.10;72.69
5954;BME280;3002;42.642;24.812;2022-10-12T10:31:22;97212.66;;;21.68;66.41
5954;BME280;3002;42.642;24.812;2022-10-12T10:36:42;97204.88;;;22.71;61.01
5954;BME280;3002;42.642;24.812;2022-10-12T10:41:47;97194.47;;;22.61;63.15
5954;BME280;3002;42.642;24.812;2022-10-12T10:44:31;97209.00;;;23.21;60.77
5954;BME280;3002;42.642;24.812;2022-10-12T10:47:01;97204.44;;;23.89;58.73
5954;BME280;3002;42.642;24.812;2022-10-12T10:49:57;97198.91;;;24.04;57.57
5954;BME280;3002;42.642;24.812;2022-10-12T10:52:32;97203.47;;;24.32;57.00
5954;BME280;3002;42.642;24.812;2022-10-12T10:55:17;97195.38;;;24.55;56.31
5954;BME280;3002;42.642;24.812;2022-10-12T10:57:49;97185.53;;;24.35;57.28
5954;BME280;3002;42.642;24.812;2022-10-12T11:00:20;97193.84;;;24.38;56.59
5954;BME280;3002;42.642;24.812;2022-10-12T11:05:42;97192.72;;;25.66;51.86
5954;BME280;3002;42.642;24.812;2022-10-12T11:08:25;97182.34;;;25.10;53.76
5954;BME280;3002;42.642;24.812;2022-10-12T11:10:52;97173.69;;;26.30;50.65
5954;BME280;3002;42.642;24.812;2022-10-12T11:16:44;97166.69;;;26.36;49.67
5954;BME280;3002;42.642;24.812;2022-10-12T11:19:38;97161.38;;;25.44;52.38
5954;BME280;3002;42.642;24.812;2022-10-12T11:22:22;97156.25;;;26.45;50.00
5954;BME280;3002;42.642;24.812;2022-10-12T11:27:37;97164.03;;;25.86;51.17
5954;BME280;3002;42.642;24.812;2022-10-12T11:30:15;97148.47;;;26.54;48.91
5954;BME280;3002;42.642;24.812;2022-10-12T11:32:54;97147.84;;;26.38;50.39
5954;BME280;3002;42.642;24.812;2022-10-12T11:35:30;97150.69;;;26.75;49.08
5954;BME280;3002;42.642;24.812;2022-10-12T11:38:01;97152.28;;;27.13;48.76
5954;BME280;3002;42.642;24.812;2022-10-12T11:41:01;97149.09;;;26.40;50.02
5954;BME280;3002;42.642;24.812;2022-10-12T11:43:37;97134.53;;;26.40;50.03
5954;BME280;3002;42.642;24.812;2022-10-12T11:46:06;97133.91;;;25.94;50.26
5954;BME280;3002;42.642;24.812;2022-10-12T11:48:42;97142.28;;;24.86;52.76
5954;BME280;3002;42.642;24.812;2022-10-12T11:51:11;97141.00;;;26.25;50.14
5954;BME280;3002;42.642;24.812;2022-10-12T11:56:31;97132.47;;;27.93;46.52
5954;BME280;3002;42.642;24.812;2022-10-12T11:59:23;97127.34;;;28.68;43.97
5954;BME280;3002;42.642;24.812;2022-10-12T12:04:46;97132.88;;;27.43;44.69
5954;BME280;3002;42.642;24.812;2022-10-12T12:19:11;97130.66;;;24.93;48.32
5954;BME280;3002;42.642;24.812;2022-10-12T12:24:36;97119.91;;;25.26;49.16
5954;BME280;3002;42.642;24.812;2022-10-12T12:27:02;97119.81;;;25.72;47.10
5954;BME280;3002;42.642;24.812;2022-10-12T12:29:28;97118.34;;;24.06;50.90
5954;BME280;3002;42.642;24.812;2022-10-12T12:31:56;97126.84;;;24.78;49.02
5954;BME280;3002;42.642;24.812;2022-10-12T12:34:26;97123.53;;;25.57;46.74
5954;BME280;3002;42.642;24.812;2022-10-12T12:36:53;97112.25;;;25.39;47.18
5954;BME280;3002;42.642;24.812;2022-10-12T12:41:55;97115.63;;;25.29;46.11
5954;BME280;3002;42.642;24.812;2022-10-12T12:44:35;97117.03;;;25.19;42.19
5954;BME280;3002;42.642;24.812;2022-10-12T12:49:47;97108.53;;;25.28;49.27
5954;BME280;3002;42.642;24.812;2022-10-12T12:52:19;97117.19;;;25.30;50.48
5954;BME280;3002;42.642;24.812;2022-10-12T13:00:30;97107.94;;;23.13;53.10
5954;BME280;3002;42.642;24.812;2022-10-12T13:19:37;97105.56;;;23.94;50.45
5954;BME280;3002;42.642;24.812;2022-10-12T13:22:05;97100.47;;;24.93;48.56
5954;BME280;3002;42.642;24.812;2022-10-12T13:24:57;97102.97;;;24.20;48.87
5954;BME280;3002;42.642;24.812;2022-10-12T13:27:29;97115.63;;;23.90;50.63
5954;BME280;3002;42.642;24.812;2022-10-12T13:30:25;97109.25;;;24.40;47.46
5954;BME280;3002;42.642;24.812;2022-10-12T13:33:12;97105.63;;;24.17;49.10
5954;BME280;3002;42.642;24.812;2022-10-12T13:40:42;97102.56;;;26.58;43.75
5954;BME280;3002;42.642;24.812;2022-10-12T13:46:00;97119.50;;;25.51;45.80
5954;BME280;3002;42.642;24.812;2022-10-12T13:48:26;97111.84;;;25.14;45.70
5954;BME280;3002;42.642;24.812;2022-10-12T13:50:57;97111.66;;;25.26;46.02
5954;BME280;3002;42.642;24.812;2022-10-12T13:53:23;97113.75;;;25.10;46.72
5954;BME280;3002;42.642;24.812;2022-10-12T13:56:14;97112.84;;;24.64;46.58
5954;BME280;3002;42.642;24.812;2022-10-12T13:58:37;97103.47;;;24.65;47.98
5954;BME280;3002;42.642;24.812;2022-10-12T14:01:04;97119.75;;;24.77;48.02
5954;BME280;3002;42.642;24.812;2022-10-12T14:03:41;97112.19;;;24.70;46.68
5954;BME280;3002;42.642;24.812;2022-10-12T14:06:27;97110.94;;;24.45;46.43
5954;BME280;3002;42.642;24.812;2022-10-12T14:09:00;97109.53;;;24.16;46.45
5954;BME280;3002;42.642;24.812;2022-10-12T14:11:26;97108.25;;;24.29;45.63
5954;BME280;3002;42.642;24.812;2022-10-12T14:13:53;97108.56;;;24.43;45.14
5954;BME280;3002;42.642;24.812;2022-10-12T14:16:19;97110.44;;;24.39;45.75
5954;BME280;3002;42.642;24.812;2022-10-12T14:18:45;97108.84;;;24.38;45.38
5954;BME280;3002;42.642;24.812;2022-10-12T14:21:15;97108.16;;;24.25;45.59
5954;BME280;3002;42.642;24.812;2022-10-12T14:23:45;97105.97;;;23.96;45.81
5954;BME280;3002;42.642;24.812;2022-10-12T14:28:57;97110.09;;;23.55;47.35
5954;BME280;3002;42.642;24.812;2022-10-12T14:31:48;97110.28;;;23.62;46.07
5954;BME280;3002;42.642;24.812;2022-10-12T14:39:42;97110.94;;;22.92;47.15
5954;BME280;3002;42.642;24.812;2022-10-12T14:42:34;97110.03;;;22.60;47.26
5954;BME280;3002;42.642;24.812;2022-10-12T14:45:02;97109.81;;;22.81;47.73
5954;BME280;3002;42.642;24.812;2022-10-12T14:47:37;97117.19;;;22.92;46.96
5954;BME280;3002;42.642;24.812;2022-10-12T14:50:05;97121.34;;;23.18;47.36
5954;BME280;3002;42.642;24.812;2022-10-12T14:52:43;97122.75;;;23.12;48.92
5954;BME280;3002;42.642;24.812;2022-10-12T14:55:28;97121.06;;;22.91;50.24
5954;BME280;3002;42.642;24.812;2022-10-12T14:57:54;97118.69;;;22.90;51.66
5954;BME280;3002;42.642;24.812;2022-10-12T15:00:22;97124.78;;;22.71;48.05
5954;BME280;3002;42.642;24.812;2022-10-12T15:02:48;97115.09;;;22.17;48.49
5954;BME280;3002;42.642;24.812;2022-10-12T15:05:17;97115.34;;;22.12;49.43
5954;BME280;3002;42.642;24.812;2022-10-12T15:07:43;97110.66;;;22.25;54.44
5954;BME280;3002;42.642;24.812;2022-10-12T15:10:11;97105.88;;;22.22;50.49
5954;BME280;3002;42.642;24.812;2022-10-12T15:12:36;97115.81;;;22.14;58.98
5954;BME280;3002;42.642;24.812;2022-10-12T15:15:27;97113.34;;;21.85;60.90
5954;BME280;3002;42.642;24.812;2022-10-12T15:17:56;97114.28;;;21.64;60.59
5954;BME280;3002;42.642;24.812;2022-10-12T15:20:22;97115.56;;;21.43;60.15
5954;BME280;3002;42.642;24.812;2022-10-12T15:22:48;97124.41;;;21.40;60.27